Time;durP1;ratioP1;P1;durP2;ratioP2;P2;SDS_P1;SDS_P2;PMS_P1;PMS_P2;Temp;Humidity;BMP_temperature;BMP_pressure;BME280_temperature;BME280_humidity;BME280_pressure;Samples;Min_cycle;Max_cycle;Signal;HPM_P1;HPM_P2
2023/09/02 00:01:32;;;;;;;15.07;13.67;;;;;;;15.36;94.80;101395.97;5034796;28;20188;-73
2023/09/02 00:04:00;;;;;;;20.10;14.50;;;;;;;15.37;94.83;101403.03;5034723;28;20184;-73
2023/09/02 00:06:27;;;;;;;19.53;14.80;;;;;;;15.34;94.92;101408.75;5035172;28;20210;-73
2023/09/02 00:08:53;;;;;;;18.67;14.97;;;;;;;15.35;94.84;101407.75;5034841;28;20208;-73
2023/09/02 00:11:20;;;;;;;17.60;13.57;;;;;;;15.35;94.75;101403.22;5034612;28;20184;-73
2023/09/02 00:13:46;;;;;;;20.50;15.23;;;;;;;15.33;94.53;101402.50;5034545;28;20261;-73
2023/09/02 00:16:17;;;;;;;22.03;16.23;;;;;;;15.33;94.81;101401.66;5034784;28;20245;-73
2023/09/02 00:18:45;;;;;;;18.23;15.07;;;;;;;15.30;95.08;101396.63;5034640;28;20617;-72
2023/09/02 00:21:11;;;;;;;17.47;14.27;;;;;;;15.28;94.88;101386.00;5034688;28;20187;-73
2023/09/02 00:23:43;;;;;;;17.00;13.67;;;;;;;15.30;94.86;101400.16;5034622;28;20242;-73
2023/09/02 00:26:10;;;;;;;18.57;14.10;;;;;;;15.33;95.00;101393.59;5034807;28;20196;-73
2023/09/02 00:28:36;;;;;;;17.37;13.77;;;;;;;15.33;95.00;101405.22;5034262;28;20634;-73
2023/09/02 00:31:03;;;;;;;21.37;14.47;;;;;;;15.34;94.96;101406.91;5033198;28;20195;-73
2023/09/02 00:33:29;;;;;;;16.83;14.60;;;;;;;15.36;95.10;101398.66;5032905;28;20196;-73
2023/09/02 00:35:56;;;;;;;28.83;17.27;;;;;;;15.38;94.67;101392.09;5034401;28;20180;-73
2023/09/02 00:38:22;;;;;;;17.47;15.20;;;;;;;15.37;94.94;101400.31;5033932;28;20231;-73
2023/09/02 00:41:00;;;;;;;23.43;14.50;;;;;;;15.36;95.12;101393.28;5034002;28;20672;-73
2023/09/02 00:43:28;;;;;;;25.47;17.00;;;;;;;15.34;95.18;101397.97;5034320;28;20176;-73
2023/09/02 00:45:55;;;;;;;22.20;15.33;;;;;;;15.36;95.13;101402.19;5034425;28;20207;-73
2023/09/02 00:48:22;;;;;;;20.10;14.67;;;;;;;15.36;95.28;101404.88;5032852;28;20705;-73
2023/09/02 00:50:48;;;;;;;16.17;13.30;;;;;;;15.39;95.04;101411.81;5034205;28;20520;-73
2023/09/02 00:53:16;;;;;;;15.40;13.33;;;;;;;15.41;95.23;101412.47;5033850;28;20679;-73
2023/09/02 00:55:43;;;;;;;24.00;17.03;;;;;;;15.43;95.17;101408.59;5032562;28;20196;-73
2023/09/02 00:58:10;;;;;;;15.67;14.13;;;;;;;15.43;95.12;101400.53;5032409;28;20219;-73
2023/09/02 01:00:36;;;;;;;18.30;14.57;;;;;;;15.45;95.14;101409.28;5033740;28;20184;-73
2023/09/02 01:03:03;;;;;;;28.23;16.07;;;;;;;15.42;95.50;101412.31;5033949;28;20183;-73
2023/09/02 01:05:30;;;;;;;26.07;17.03;;;;;;;15.43;95.45;101410.44;5033679;28;20176;-72
2023/09/02 01:07:57;;;;;;;27.87;16.90;;;;;;;15.43;95.22;101405.91;5032228;28;20214;-72
2023/09/02 01:10:23;;;;;;;32.87;15.63;;;;;;;15.42;95.38;101403.38;5033870;28;20180;-73
2023/09/02 01:12:50;;;;;;;19.70;15.10;;;;;;;15.43;95.24;101411.31;5033436;28;20215;-73
2023/09/02 01:15:17;;;;;;;16.53;14.00;;;;;;;15.47;95.27;101417.19;5033819;28;20571;-73
2023/09/02 01:17:43;;;;;;;22.63;14.73;;;;;;;15.48;95.27;101411.66;5033435;28;20559;-72
2023/09/02 01:20:13;;;;;;;31.43;17.33;;;;;;;15.50;95.36;101415.03;5033407;28;20249;-73
2023/09/02 01:22:55;;;;;;;30.20;17.37;;;;;;;15.50;95.40;101408.81;5033383;28;20188;-73
2023/09/02 01:26:03;;;;;;;21.80;15.70;;;;;;;15.51;95.55;101419.44;5033921;28;20180;-73
2023/09/02 01:28:34;;;;;;;21.13;14.77;;;;;;;15.51;95.40;101408.66;5026667;28;20281;-73
2023/09/02 01:31:04;;;;;;;23.93;16.90;;;;;;;15.54;95.34;101413.69;5033846;28;20218;-73
2023/09/02 01:33:31;;;;;;;24.73;16.50;;;;;;;15.53;95.54;101409.31;5033293;28;20190;-73
2023/09/02 01:35:58;;;;;;;29.03;16.77;;;;;;;15.50;95.62;101417.72;5033433;28;20186;-73
2023/09/02 01:38:27;;;;;;;24.23;15.80;;;;;;;15.50;95.90;101416.88;5033170;28;20211;-73
2023/09/02 01:40:56;;;;;;;27.53;16.43;;;;;;;15.50;95.76;101411.50;5031940;28;20209;-73
2023/09/02 01:43:23;;;;;;;26.30;15.43;;;;;;;15.53;95.57;101416.56;5033174;28;20196;-73
2023/09/02 01:45:51;;;;;;;23.23;15.70;;;;;;;15.53;95.59;101420.09;5031786;28;20241;-73
2023/09/02 01:48:19;;;;;;;21.30;14.77;;;;;;;15.56;95.49;101426.16;5033056;28;20230;-72
2023/09/02 01:50:47;;;;;;;26.10;16.70;;;;;;;15.57;95.55;101419.78;5033229;28;20573;-74
2023/09/02 01:53:14;;;;;;;21.60;14.93;;;;;;;15.59;95.54;101429.38;5037240;28;20184;-74
2023/09/02 01:55:42;;;;;;;22.57;15.63;;;;;;;15.59;95.55;101420.44;5037668;28;20656;-74
2023/09/02 01:58:10;;;;;;;26.20;17.47;;;;;;;15.60;95.71;101424.81;5035789;28;20555;-73
2023/09/02 02:00:38;;;;;;;29.57;18.20;;;;;;;15.61;95.43;101421.97;5035798;28;20199;-73
2023/09/02 02:03:14;;;;;;;27.97;16.83;;;;;;;15.59;95.68;101421.28;5035753;28;20195;-73
2023/09/02 02:05:48;;;;;;;21.53;15.63;;;;;;;15.59;95.61;101423.13;5035760;28;20270;-73
2023/09/02 02:08:26;;;;;;;31.67;17.03;;;;;;;15.57;95.73;101422.47;5037433;28;20196;-73
2023/09/02 02:10:55;;;;;;;28.00;16.90;;;;;;;15.57;95.43;101423.31;5035681;28;20180;-73
2023/09/02 02:13:22;;;;;;;20.07;15.40;;;;;;;15.57;95.55;101423.31;5035502;28;20633;-73
2023/09/02 02:15:48;;;;;;;22.87;16.37;;;;;;;15.58;95.65;101432.22;5036803;28;20191;-73
2023/09/02 02:18:15;;;;;;;14.27;12.93;;;;;;;15.57;95.68;101422.47;5036688;28;20204;-73
2023/09/02 02:20:58;;;;;;;17.27;14.67;;;;;;;15.57;95.63;101426.00;5035424;28;20690;-72
2023/09/02 02:23:25;;;;;;;21.27;14.27;;;;;;;15.57;95.63;101425.16;5036987;28;20168;-73
2023/09/02 02:25:51;;;;;;;24.80;15.53;;;;;;;15.57;95.62;101428.72;5036584;28;20195;-73
2023/09/02 02:28:19;;;;;;;17.60;13.97;;;;;;;15.58;95.65;101426.81;5035234;28;20240;-72
2023/09/02 02:30:46;;;;;;;18.20;13.93;;;;;;;15.58;95.72;101429.53;5035249;28;20192;-72
2023/09/02 02:33:12;;;;;;;23.23;13.67;;;;;;;15.57;95.75;101423.31;5036464;28;20192;-73
2023/09/02 02:35:39;;;;;;;16.63;13.33;;;;;;;15.57;95.72;101420.63;5035145;28;20227;-73
2023/09/02 02:38:05;;;;;;;15.93;12.03;;;;;;;15.57;95.73;101422.47;5036604;28;20211;-73
2023/09/02 02:40:32;;;;;;;16.57;14.03;;;;;;;15.52;95.57;101423.81;5035078;28;20287;-73
2023/09/02 02:42:59;;;;;;;12.27;11.00;;;;;;;15.51;95.80;101432.06;5036557;28;20549;-73
2023/09/02 02:45:25;;;;;;;15.77;12.03;;;;;;;15.48;95.59;101427.81;5036235;28;20194;-73
2023/09/02 02:47:52;;;;;;;14.13;12.27;;;;;;;15.47;95.81;101431.53;5036063;28;20200;-72
2023/09/02 02:50:19;;;;;;;13.40;12.03;;;;;;;15.47;95.84;101426.13;5036395;28;20176;-72
2023/09/02 02:52:46;;;;;;;13.37;11.87;;;;;;;15.48;95.38;101427.81;5034858;28;20744;-73
2023/09/02 02:55:13;;;;;;;13.97;11.70;;;;;;;15.46;95.78;101432.53;5036095;28;20306;-73
2023/09/02 02:57:39;;;;;;;14.23;12.83;;;;;;;15.46;95.60;101439.75;5034795;28;20275;-73
2023/09/02 03:00:11;;;;;;;13.23;11.97;;;;;;;15.48;95.59;101440.44;5034968;28;20196;-72
2023/09/02 03:02:38;;;;;;;15.30;12.37;;;;;;;15.47;95.67;101438.75;5033369;28;20687;-72
2023/09/02 03:05:05;;;;;;;20.87;13.93;;;;;;;15.47;95.71;101438.75;5034628;28;20188;-72
2023/09/02 03:07:32;;;;;;;28.37;13.63;;;;;;;15.47;95.10;101436.91;5035607;28;20560;-73
2023/09/02 03:09:59;;;;;;;17.47;14.00;;;;;;;15.47;95.63;101436.91;5036265;28;20270;-73
2023/09/02 03:12:25;;;;;;;21.53;14.53;;;;;;;15.48;95.71;101438.59;5034397;28;20219;-73
2023/09/02 03:14:52;;;;;;;19.00;14.20;;;;;;;15.49;95.63;101434.03;5036499;28;20192;-73
2023/09/02 03:17:20;;;;;;;19.70;12.97;;;;;;;15.49;95.65;101431.31;5034405;28;20604;-73
2023/09/02 03:19:49;;;;;;;15.83;12.50;;;;;;;15.48;95.62;101430.50;5034294;28;20707;-73
2023/09/02 03:22:15;;;;;;;17.10;11.70;;;;;;;15.48;95.46;101432.38;5035115;28;20227;-73
2023/09/02 03:24:44;;;;;;;19.17;14.30;;;;;;;15.50;95.58;101430.38;5035393;28;20532;-73
2023/09/02 03:27:11;;;;;;;16.93;14.10;;;;;;;15.48;96.03;101440.44;5034118;28;20303;-73
2023/09/02 03:29:39;;;;;;;18.93;13.30;;;;;;;15.45;95.64;101436.22;5034112;28;20212;-73
2023/09/02 03:32:06;;;;;;;22.53;14.17;;;;;;;15.46;95.42;101434.38;5035548;28;20271;-73
2023/09/02 03:34:32;;;;;;;16.87;13.20;;;;;;;15.41;95.60;101439.41;5035573;28;20203;-73
2023/09/02 03:36:59;;;;;;;17.00;13.20;;;;;;;15.41;95.54;101434.88;5036168;28;20561;-73
2023/09/02 03:39:25;;;;;;;23.03;14.03;;;;;;;15.40;95.75;101430.47;5035719;28;20259;-73
2023/09/02 03:41:51;;;;;;;21.00;13.67;;;;;;;15.43;95.67;101421.22;5035769;28;20249;-73
2023/09/02 03:44:19;;;;;;;28.40;16.13;;;;;;;15.42;95.70;101422.22;5033946;28;20563;-73
2023/09/02 03:46:45;;;;;;;21.77;13.70;;;;;;;15.45;95.66;101427.28;5033822;28;20204;-73
2023/09/02 03:49:12;;;;;;;20.00;14.27;;;;;;;15.42;95.77;101425.78;5033747;28;20567;-73
2023/09/02 03:51:39;;;;;;;16.23;13.63;;;;;;;15.42;95.71;101433.88;5033756;28;20686;-73
2023/09/02 03:54:07;;;;;;;16.57;12.73;;;;;;;15.44;95.81;101426.47;5033732;28;20204;-73
2023/09/02 03:56:36;;;;;;;18.83;13.30;;;;;;;15.42;95.78;101425.78;5033678;28;20222;-73
2023/09/02 03:59:04;;;;;;;21.37;14.60;;;;;;;15.45;95.75;101435.38;5033547;28;20294;-73
2023/09/02 04:01:31;;;;;;;13.93;12.53;;;;;;;15.47;95.81;101442.28;5035106;28;20184;-73
2023/09/02 04:03:59;;;;;;;18.93;15.17;;;;;;;15.45;95.62;101436.22;5033702;28;20191;-73
2023/09/02 04:06:25;;;;;;;16.20;13.17;;;;;;;15.46;95.63;101432.53;5033371;28;20246;-73
2023/09/02 04:08:52;;;;;;;32.43;14.27;;;;;;;15.43;95.33;101442.78;5034605;28;20208;-72
2023/09/02 04:11:18;;;;;;;14.10;11.90;;;;;;;15.42;95.63;101451.88;5033362;28;20203;-72
2023/09/02 04:13:45;;;;;;;16.03;13.47;;;;;;;15.41;95.71;101448.34;5034138;28;20664;-72
2023/09/02 04:16:12;;;;;;;13.27;11.87;;;;;;;15.42;95.71;101451.88;5033274;28;20196;-73
2023/09/02 04:18:39;;;;;;;20.70;15.13;;;;;;;15.42;95.56;101452.72;5034608;28;20204;-72
2023/09/02 04:21:08;;;;;;;17.47;13.57;;;;;;;15.41;95.42;101452.88;5033220;28;20194;-72
2023/09/02 04:23:37;;;;;;;13.40;11.07;;;;;;;15.39;95.92;101446.81;5017089;28;20195;-72
2023/09/02 04:26:07;;;;;;;15.90;11.97;;;;;;;15.39;95.67;101454.91;5033153;28;20234;-73
2023/09/02 04:28:33;;;;;;;26.23;15.47;;;;;;;15.38;95.61;101458.59;5034376;28;20211;-73
2023/09/02 04:31:01;;;;;;;13.77;11.87;;;;;;;15.38;95.81;101458.59;5033036;28;20195;-73
2023/09/02 04:33:30;;;;;;;20.47;14.47;;;;;;;15.37;95.60;101456.91;5032952;28;20223;-73
2023/09/02 04:36:00;;;;;;;24.87;14.77;;;;;;;15.39;95.58;101463.00;5034707;28;20179;-73
2023/09/02 04:38:28;;;;;;;17.53;13.93;;;;;;;15.38;95.69;101464.84;5032855;28;20208;-73
2023/09/02 04:40:54;;;;;;;15.97;12.50;;;;;;;15.37;95.63;101465.00;5032822;28;20547;-73
2023/09/02 04:43:21;;;;;;;15.93;12.27;;;;;;;15.36;95.20;101472.22;5034020;28;20192;-73
2023/09/02 04:45:49;;;;;;;12.83;11.53;;;;;;;15.32;95.98;101470.88;5032970;28;20196;-73
2023/09/02 04:48:16;;;;;;;22.23;14.67;;;;;;;15.30;95.30;101472.91;5032555;28;20693;-73
2023/09/02 04:50:43;;;;;;;14.00;12.07;;;;;;;15.24;95.23;101480.78;5033244;28;20199;-73
2023/09/02 04:53:12;;;;;;;18.83;13.87;;;;;;;15.20;95.35;101477.56;5032611;28;20729;-73
2023/09/02 04:55:41;;;;;;;16.30;12.53;;;;;;;15.20;95.47;101479.41;5032536;28;20188;-73
2023/09/02 04:58:10;;;;;;;16.10;12.97;;;;;;;15.18;95.55;101481.44;5032677;28;20211;-72
2023/09/02 05:00:39;;;;;;;17.73;11.93;;;;;;;15.21;95.54;101491.88;5032695;28;20196;-72
2023/09/02 05:03:08;;;;;;;16.67;13.97;;;;;;;15.20;95.47;101482.97;5032420;28;20203;-72
2023/09/02 05:05:35;;;;;;;13.37;12.17;;;;;;;15.20;95.58;101488.34;5032408;28;20569;-72
2023/09/02 05:08:05;;;;;;;13.93;12.50;;;;;;;15.21;95.45;101495.44;5032238;28;20223;-72
2023/09/02 05:10:31;;;;;;;18.80;13.67;;;;;;;15.21;95.15;101491.88;5032589;28;20192;-72
2023/09/02 05:12:58;;;;;;;17.57;13.07;;;;;;;15.19;95.30;101497.44;5032253;28;20680;-72
2023/09/02 05:15:27;;;;;;;19.17;14.87;;;;;;;15.23;95.59;101501.53;5033096;28;20290;-72
2023/09/02 05:17:58;;;;;;;18.30;13.43;;;;;;;15.21;95.25;101491.88;5033501;28;20184;-72
2023/09/02 05:20:26;;;;;;;27.30;15.17;;;;;;;15.22;95.49;101493.59;5032242;28;20200;-72
2023/09/02 05:22:53;;;;;;;13.80;12.17;;;;;;;15.24;95.65;101500.47;5032132;28;20195;-72
2023/09/02 05:25:20;;;;;;;13.23;11.23;;;;;;;15.26;95.42;101501.19;5031405;28;20196;-72
2023/09/02 05:27:48;;;;;;;13.43;12.03;;;;;;;15.28;95.49;101498.31;5031897;28;20688;-72
2023/09/02 05:30:14;;;;;;;15.07;12.90;;;;;;;15.29;95.41;101500.84;5033636;28;20168;-72
2023/09/02 05:32:40;;;;;;;12.33;11.03;;;;;;;15.32;95.50;101503.19;5033294;28;20188;-73
2023/09/02 05:35:07;;;;;;;15.67;12.17;;;;;;;15.34;95.46;101498.50;5033297;28;20188;-73
2023/09/02 05:37:34;;;;;;;13.13;11.80;;;;;;;15.37;95.45;101505.41;5033512;28;20180;-73
2023/09/02 05:40:00;;;;;;;14.20;11.93;;;;;;;15.40;95.46;101505.91;5033147;28;20273;-72
2023/09/02 05:42:27;;;;;;;15.00;13.40;;;;;;;15.42;95.62;101508.47;5033912;28;20184;-73
2023/09/02 05:44:53;;;;;;;13.37;11.10;;;;;;;15.45;95.60;101514.38;5033380;28;20184;-73
2023/09/02 05:47:20;;;;;;;11.73;10.23;;;;;;;15.50;95.60;101511.22;5033286;28;20208;-73
2023/09/02 05:49:46;;;;;;;12.20;11.17;;;;;;;15.51;95.55;101516.44;5033055;28;20208;-73
2023/09/02 05:52:12;;;;;;;13.63;12.13;;;;;;;15.56;95.60;101501.63;5033692;28;20184;-74
2023/09/02 05:54:39;;;;;;;13.63;10.33;;;;;;;15.58;95.65;101516.63;5033305;28;20729;-73
2023/09/02 05:57:05;;;;;;;14.80;11.53;;;;;;;15.61;95.66;101504.69;5033057;28;20234;-73
2023/09/02 05:59:32;;;;;;;13.43;11.30;;;;;;;15.62;95.60;101507.19;5033212;28;20579;-72
2023/09/02 06:01:59;;;;;;;11.17;10.33;;;;;;;15.65;95.87;101511.44;5032982;28;20191;-73
2023/09/02 06:04:25;;;;;;;14.73;12.50;;;;;;;15.68;95.77;101514.63;5033597;28;20184;-72
2023/09/02 06:06:54;;;;;;;16.93;13.27;;;;;;;15.72;95.75;101517.84;5033228;28;20199;-74
2023/09/02 06:09:20;;;;;;;20.63;14.57;;;;;;;15.76;95.63;101517.34;5033075;28;20211;-72
2023/09/02 06:11:47;;;;;;;19.67;13.37;;;;;;;15.81;95.80;101524.94;5033367;28;20648;-72
2023/09/02 06:14:13;;;;;;;15.80;13.27;;;;;;;15.85;95.92;101527.13;5032860;28;20192;-72
2023/09/02 06:16:40;;;;;;;13.37;12.13;;;;;;;15.88;95.60;101528.63;5032825;28;20199;-72
2023/09/02 06:19:07;;;;;;;13.17;11.03;;;;;;;15.90;95.82;101532.03;5032790;28;20291;-72
2023/09/02 06:21:33;;;;;;;11.83;9.90;;;;;;;15.96;95.97;101534.03;5032821;28;20192;-72
2023/09/02 06:24:00;;;;;;;12.47;11.17;;;;;;;16.02;95.76;101540.63;5032781;28;20191;-73
2023/09/02 06:26:26;;;;;;;12.00;11.00;;;;;;;16.07;95.92;101535.59;5033291;28;20188;-73
2023/09/02 06:28:52;;;;;;;12.43;11.33;;;;;;;16.12;95.79;101539.47;5032824;28;20222;-73
2023/09/02 06:31:19;;;;;;;11.53;10.00;;;;;;;16.16;96.00;101540.81;5032741;28;20745;-73
2023/09/02 06:33:46;;;;;;;13.47;9.87;;;;;;;16.19;95.87;101548.56;5032648;28;20191;-73
2023/09/02 06:36:14;;;;;;;10.80;9.77;;;;;;;16.24;95.76;101539.97;5033326;28;20245;-73
2023/09/02 06:38:41;;;;;;;11.53;10.50;;;;;;;16.29;95.96;101546.56;5036300;28;20254;-73
2023/09/02 06:41:09;;;;;;;12.23;11.00;;;;;;;16.34;95.88;101548.72;5036359;28;20191;-73
2023/09/02 06:43:36;;;;;;;10.40;9.33;;;;;;;16.37;95.98;101549.25;5036243;28;20187;-73
2023/09/02 06:46:15;;;;;;;10.90;9.77;;;;;;;16.44;95.65;101549.41;5036244;28;20187;-73
2023/09/02 06:48:43;;;;;;;14.43;11.17;;;;;;;16.52;95.90;101552.09;5036322;28;20749;-72
2023/09/02 06:51:10;;;;;;;13.97;12.57;;;;;;;16.60;95.75;101552.13;5036690;28;20188;-73
2023/09/02 06:53:36;;;;;;;13.10;11.90;;;;;;;16.63;95.82;101556.34;5036147;28;20253;-73
2023/09/02 06:56:12;;;;;;;11.13;10.30;;;;;;;16.63;95.68;101569.84;5036096;28;20233;-73
2023/09/02 06:58:40;;;;;;;10.70;10.07;;;;;;;16.65;95.55;101567.81;5035980;28;20199;-73
2023/09/02 07:01:15;;;;;;;12.03;11.07;;;;;;;16.70;95.57;101587.91;5036255;28;20194;-73
2023/09/02 07:03:42;;;;;;;12.10;10.37;;;;;;;16.75;95.40;101579.28;5036503;28;20238;-73
2023/09/02 07:06:13;;;;;;;12.00;10.90;;;;;;;16.78;95.49;101584.34;5035889;28;20180;-73
2023/09/02 07:08:40;;;;;;;10.87;10.03;;;;;;;16.81;95.61;101587.53;5036004;28;20629;-73
2023/09/02 07:11:09;;;;;;;10.40;9.60;;;;;;;16.87;95.34;101597.66;5035797;28;20718;-73
2023/09/02 07:13:39;;;;;;;9.10;8.57;;;;;;;16.89;95.29;101597.47;5035673;28;20199;-73
2023/09/02 07:16:06;;;;;;;8.63;8.13;;;;;;;16.89;95.42;101595.63;5036012;28;20180;-73
2023/09/02 07:18:33;;;;;;;7.23;6.93;;;;;;;16.92;95.09;101601.72;5035925;28;20199;-73
2023/09/02 07:21:02;;;;;;;8.77;8.27;;;;;;;16.99;95.40;101602.69;5035611;28;20192;-73
2023/09/02 07:23:29;;;;;;;8.50;8.10;;;;;;;17.07;94.68;101600.81;5035572;28;20195;-73
2023/09/02 07:26:00;;;;;;;8.70;8.03;;;;;;;17.15;94.36;101611.59;5036094;28;20587;-73
2023/09/02 07:28:28;;;;;;;8.77;8.37;;;;;;;17.13;93.88;101610.09;5035387;28;20219;-73
2023/09/02 07:30:58;;;;;;;7.80;7.50;;;;;;;17.17;93.57;101623.09;5035458;28;20257;-74
2023/09/02 07:33:25;;;;;;;8.77;8.43;;;;;;;17.20;93.40;101617.34;5035635;28;20184;-74
2023/09/02 07:35:52;;;;;;;8.40;8.10;;;;;;;17.18;92.99;101629.34;5035338;28;20188;-74
2023/09/02 07:38:18;;;;;;;8.50;8.10;;;;;;;17.19;92.75;101622.91;5035173;28;20262;-73
2023/09/02 07:40:45;;;;;;;7.80;7.40;;;;;;;17.21;93.23;101629.84;5035519;28;20198;-73
2023/09/02 07:43:11;;;;;;;9.03;8.23;;;;;;;17.31;92.26;101643.19;5035763;28;20191;-73
2023/09/02 07:45:37;;;;;;;8.67;8.07;;;;;;;17.26;92.53;101643.69;5035197;28;20184;-73
2023/09/02 07:48:04;;;;;;;7.20;6.90;;;;;;;17.24;92.27;101645.72;5034385;28;20230;-73
2023/09/02 07:50:31;;;;;;;7.67;7.30;;;;;;;17.28;92.63;101648.91;5035002;28;20716;-73
2023/09/02 07:52:57;;;;;;;6.53;6.40;;;;;;;17.29;92.21;101656.00;5035509;28;20195;-73
2023/09/02 07:55:25;;;;;;;6.07;5.93;;;;;;;17.29;92.65;101667.66;5035225;28;20250;-73
2023/09/02 07:57:52;;;;;;;6.90;6.60;;;;;;;17.33;92.72;101662.75;5034805;28;20196;-73
2023/09/02 08:00:18;;;;;;;6.33;6.03;;;;;;;17.38;92.36;101667.63;5035079;28;20516;-73
2023/09/02 08:02:45;;;;;;;6.10;5.83;;;;;;;17.40;92.82;101671.03;5035420;28;20671;-73
2023/09/02 08:05:11;;;;;;;6.30;6.10;;;;;;;17.40;92.75;101676.44;5035105;28;20212;-73
2023/09/02 08:07:38;;;;;;;7.70;7.20;;;;;;;17.45;92.19;101683.00;5034557;28;20192;-73
2023/09/02 08:10:05;;;;;;;8.10;7.67;;;;;;;17.47;92.21;101689.09;5034843;28;20215;-73
2023/09/02 08:12:31;;;;;;;7.67;7.17;;;;;;;17.50;91.88;101685.19;5034741;28;20207;-73
2023/09/02 08:14:57;;;;;;;6.20;6.00;;;;;;;17.50;92.29;101685.19;5034852;28;20184;-73
2023/09/02 08:17:25;;;;;;;6.33;6.23;;;;;;;17.52;91.82;101683.16;5034554;28;20192;-73
2023/09/02 08:19:52;;;;;;;6.00;5.90;;;;;;;17.61;91.57;101690.25;5034394;28;20239;-73
2023/09/02 08:22:18;;;;;;;5.43;5.23;;;;;;;17.60;91.43;101693.97;5034482;28;20183;-73
2023/09/02 08:24:44;;;;;;;5.13;5.13;;;;;;;17.64;91.65;101696.16;5034900;28;20619;-73
2023/09/02 08:27:11;;;;;;;7.47;6.97;;;;;;;17.85;90.38;101702.84;5034481;28;20238;-73
2023/09/02 08:29:37;;;;;;;6.77;6.50;;;;;;;17.83;90.37;101696.75;5034369;28;20212;-73
2023/09/02 08:32:04;;;;;;;6.63;6.33;;;;;;;17.88;89.92;101703.34;5034281;28;20188;-73
2023/09/02 08:34:30;;;;;;;7.73;7.23;;;;;;;17.93;90.00;101703.66;5034197;28;20246;-73
2023/09/02 08:36:57;;;;;;;6.40;6.20;;;;;;;17.98;89.21;101698.56;5034184;28;20196;-73
2023/09/02 08:39:23;;;;;;;6.60;6.20;;;;;;;18.08;89.33;101703.75;5034324;28;20212;-73
2023/09/02 08:41:50;;;;;;;6.97;6.47;;;;;;;18.13;89.22;101701.34;5034078;28;20188;-73
2023/09/02 08:44:17;;;;;;;6.87;6.50;;;;;;;18.23;88.90;101702.00;5034030;28;20200;-73
2023/09/02 08:46:46;;;;;;;6.17;5.97;;;;;;;18.12;88.99;101703.22;5034256;28;20681;-73
2023/09/02 08:49:15;;;;;;;5.80;5.50;;;;;;;18.12;89.38;101699.69;5033782;28;20219;-75
2023/09/02 08:51:42;;;;;;;5.50;5.30;;;;;;;18.12;89.46;101694.28;5034381;28;20275;-74
2023/09/02 08:54:10;;;;;;;4.87;4.77;;;;;;;18.15;90.07;101693.91;5033909;28;20184;-73
2023/09/02 08:56:41;;;;;;;5.80;5.60;;;;;;;18.17;89.49;101699.97;5033763;28;20246;-73
2023/09/02 08:59:12;;;;;;;4.93;4.67;;;;;;;18.21;89.44;101698.59;5033851;28;20211;-73
2023/09/02 09:01:45;;;;;;;4.70;4.60;;;;;;;18.24;89.62;101701.81;5033718;28;20176;-73
2023/09/02 09:04:16;;;;;;;8.80;4.70;;;;;;;18.29;89.69;101703.16;5034275;28;20176;-73
2023/09/02 09:06:43;;;;;;;6.60;5.83;;;;;;;18.35;89.39;101705.97;5033959;28;20582;-73
2023/09/02 09:09:11;;;;;;;4.80;4.60;;;;;;;18.40;89.69;101705.44;5034385;28;20574;-73
2023/09/02 09:11:41;;;;;;;4.53;4.17;;;;;;;18.42;89.54;101706.94;5033570;28;20187;-72
2023/09/02 09:14:23;;;;;;;5.40;5.30;;;;;;;18.47;89.34;101704.53;5033621;28;20198;-72
2023/09/02 09:16:54;;;;;;;3.80;3.80;;;;;;;18.53;89.31;101708.44;5033562;28;20184;-72
2023/09/02 09:19:25;;;;;;;3.80;3.70;;;;;;;18.58;89.77;101700.63;5033397;28;20254;-72
2023/09/02 09:21:52;;;;;;;4.57;4.40;;;;;;;18.62;89.08;101699.25;5033432;28;20187;-72
2023/09/02 09:24:18;;;;;;;6.10;4.47;;;;;;;18.64;89.36;101695.31;5033357;28;20199;-73
2023/09/02 09:26:45;;;;;;;3.80;3.60;;;;;;;18.68;89.24;101707.47;5033934;28;20234;-73
2023/09/02 09:29:16;;;;;;;4.50;4.40;;;;;;;18.73;89.35;101715.06;5033160;28;20208;-72
2023/09/02 09:31:44;;;;;;;5.10;4.90;;;;;;;18.76;89.68;101717.41;5033630;28;20624;-72
2023/09/02 09:34:15;;;;;;;4.37;4.03;;;;;;;18.78;89.72;101714.53;5033576;28;20226;-72
2023/09/02 09:36:43;;;;;;;5.27;5.07;;;;;;;18.81;89.66;101715.00;5033552;28;20317;-72
2023/09/02 09:39:10;;;;;;;4.70;4.70;;;;;;;18.83;89.33;101720.25;5033110;28;20626;-72
2023/09/02 09:41:45;;;;;;;6.10;4.20;;;;;;;18.84;89.19;101711.91;5033146;28;20242;-72
2023/09/02 09:44:14;;;;;;;5.50;5.00;;;;;;;18.87;89.74;101714.28;5033663;28;20190;-72
2023/09/02 09:46:43;;;;;;;10.80;4.73;;;;;;;18.91;89.32;101721.03;5033115;28;20200;-72
2023/09/02 09:49:31;;;;;;;4.20;4.20;;;;;;;18.96;89.16;101715.06;5032937;28;20220;-72
2023/09/02 09:52:00;;;;;;;5.63;5.40;;;;;;;18.96;88.83;101717.78;5033355;28;20175;-72
2023/09/02 09:54:41;;;;;;;5.43;5.07;;;;;;;18.95;88.72;101722.34;5033491;28;20547;-72
2023/09/02 09:57:14;;;;;;;4.17;4.07;;;;;;;19.02;89.00;101717.03;5033031;28;20218;-74
2023/09/02 09:59:52;;;;;;;3.93;3.93;;;;;;;19.12;87.90;101726.59;5033542;28;20211;-72
2023/09/02 10:02:20;;;;;;;4.13;3.93;;;;;;;19.13;87.52;101727.44;5033623;28;20172;-73
2023/09/02 10:04:55;;;;;;;3.57;3.40;;;;;;;19.18;87.30;101731.28;5033266;28;20610;-73
2023/09/02 10:07:27;;;;;;;3.60;3.43;;;;;;;19.21;86.85;101732.78;5032969;28;20234;-73
2023/09/02 10:09:55;;;;;;;4.63;4.20;;;;;;;19.36;85.13;101733.66;5033058;28;20618;-72
2023/09/02 10:12:22;;;;;;;4.23;4.13;;;;;;;19.37;84.13;101737.22;5035082;28;20187;-72
2023/09/02 10:14:50;;;;;;;3.60;3.40;;;;;;;19.32;84.30;101742.34;5037370;28;20187;-72
2023/09/02 10:17:17;;;;;;;4.17;4.07;;;;;;;19.32;84.33;101731.50;5037332;28;20211;-72
2023/09/02 10:19:45;;;;;;;3.90;3.80;;;;;;;19.33;84.57;101744.88;5036647;28;20265;-72
2023/09/02 10:22:18;;;;;;;4.17;4.07;;;;;;;19.39;84.51;101744.13;5036936;28;20188;-72
2023/09/02 10:24:58;;;;;;;6.37;5.90;;;;;;;19.43;84.33;101744.66;5036731;28;20215;-72
2023/09/02 10:27:26;;;;;;;6.63;6.03;;;;;;;19.45;84.65;101757.00;5036878;28;20242;-72
2023/09/02 10:29:56;;;;;;;5.43;5.33;;;;;;;19.43;84.64;101764.47;5036581;28;20265;-72
2023/09/02 10:32:28;;;;;;;6.87;6.37;;;;;;;19.48;85.05;101758.47;5037026;28;20188;-72
2023/09/02 10:35:17;;;;;;;6.93;6.63;;;;;;;19.50;84.76;101761.88;5037229;28;20255;-72
2023/09/02 10:37:50;;;;;;;7.17;6.93;;;;;;;19.54;84.32;101763.19;5036597;28;20636;-72
2023/09/02 10:40:24;;;;;;;6.63;6.33;;;;;;;19.58;84.34;101764.50;5036413;28;20188;-72
2023/09/02 10:42:52;;;;;;;6.23;5.77;;;;;;;19.58;84.29;101759.91;5036385;28;20187;-72
2023/09/02 10:45:19;;;;;;;6.77;6.17;;;;;;;19.56;83.79;101753.00;5036555;28;20714;-72
2023/09/02 10:47:47;;;;;;;6.97;6.80;;;;;;;19.52;83.68;101744.38;5036130;28;20196;-72
2023/09/02 10:50:16;;;;;;;6.63;6.10;;;;;;;19.54;83.95;101758.59;5036152;28;20766;-72
2023/09/02 10:52:42;;;;;;;5.77;5.50;;;;;;;19.51;84.27;101750.84;5036063;28;20192;-72
2023/09/02 10:55:10;;;;;;;5.10;4.70;;;;;;;19.54;84.67;101753.16;5036399;28;20249;-72
2023/09/02 10:57:49;;;;;;;9.30;5.23;;;;;;;19.57;84.89;101752.78;5036323;28;20184;-72
2023/09/02 11:00:19;;;;;;;6.63;6.37;;;;;;;19.60;84.89;101754.31;5036030;28;20230;-73
2023/09/02 11:02:52;;;;;;;6.67;6.43;;;;;;;19.64;85.32;101750.19;5036571;28;20180;-73
2023/09/02 11:05:20;;;;;;;5.93;5.63;;;;;;;19.68;84.70;101756.94;5036215;28;20723;-73
2023/09/02 11:07:48;;;;;;;6.93;6.60;;;;;;;19.74;84.47;101761.59;5035805;28;20196;-72
2023/09/02 11:10:17;;;;;;;8.63;6.60;;;;;;;19.78;84.07;101762.91;5036303;28;20204;-72
2023/09/02 11:13:04;;;;;;;6.03;5.93;;;;;;;19.83;84.72;101771.34;5035889;28;20192;-72
2023/09/02 11:15:32;;;;;;;6.67;6.40;;;;;;;19.89;84.58;101776.03;5035772;28;20664;-72
2023/09/02 11:18:29;;;;;;;6.90;6.50;;;;;;;19.94;84.31;101762.72;5036131;28;20226;-72
2023/09/02 11:20:56;;;;;;;6.77;6.67;;;;;;;20.00;84.25;101766.56;5035600;28;20190;-72